Time;durP1;ratioP1;P1;durP2;ratioP2;P2;SDS_P1;SDS_P2;PMS_P1;PMS_P2;Temp;Humidity;BMP_temperature;BMP_pressure;BME280_temperature;BME280_humidity;BME280_pressure;Samples;Min_cycle;Max_cycle;Signal;HPM_P1;HPM_P2
2022/06/22 00:01:22;;;;;;;2.20;2.20;;;17.60;99.90;;;;;;6163665;29;20290;-68
2022/06/22 00:04:31;;;;;;;2.45;2.25;;;17.60;99.90;;;;;;6165235;28;20294;-68
2022/06/22 00:07:42;;;;;;;2.10;2.10;;;17.70;99.90;;;;;;6187424;28;20462;-68
2022/06/22 00:10:54;;;;;;;2.13;2.13;;;17.50;99.90;;;;;;6176326;28;20557;-68
2022/06/22 00:14:02;;;;;;;2.30;2.30;;;17.50;99.90;;;;;;6163683;28;20298;-68
2022/06/22 00:17:18;;;;;;;2.08;1.98;;;17.40;99.90;;;;;;6163609;29;20272;-68
2022/06/22 00:20:27;;;;;;;3.85;2.33;;;17.40;99.90;;;;;;6162836;29;20481;-68
2022/06/22 00:23:39;;;;;;;2.63;2.30;;;17.30;99.90;;;;;;6163509;29;20298;-68
2022/06/22 00:26:49;;;;;;;3.05;2.67;;;17.30;99.90;;;;;;6163952;29;20275;-68
2022/06/22 00:30:21;;;;;;;2.53;2.33;;;17.20;99.90;;;;;;6163583;29;20302;-67
2022/06/22 00:33:28;;;;;;;13.27;3.08;;;17.30;99.90;;;;;;6163403;28;20298;-67
2022/06/22 00:36:39;;;;;;;8.02;2.90;;;17.30;99.90;;;;;;6164104;28;20294;-67
2022/06/22 00:39:46;;;;;;;5.68;2.72;;;17.40;99.90;;;;;;6163204;29;20310;-67
2022/06/22 00:42:52;;;;;;;2.95;2.35;;;17.40;99.90;;;;;;6163418;28;20307;-67
2022/06/22 00:45:58;;;;;;;4.03;2.50;;;17.40;99.90;;;;;;6163393;29;20294;-67
2022/06/22 00:49:11;;;;;;;2.67;2.40;;;17.30;99.90;;;;;;6163250;29;20317;-67
2022/06/22 00:52:27;;;;;;;5.90;2.08;;;17.40;99.90;;;;;;6163375;28;20278;-67
2022/06/22 00:55:36;;;;;;;2.28;2.17;;;17.30;99.90;;;;;;6163214;29;20279;-67
2022/06/22 00:58:49;;;;;;;5.00;2.60;;;17.30;99.90;;;;;;6163163;29;20303;-67
2022/06/22 01:01:59;;;;;;;8.35;2.70;;;17.30;99.90;;;;;;6167379;28;20473;-67
2022/06/22 01:05:17;;;;;;;5.05;2.35;;;17.40;99.90;;;;;;6167386;28;20302;-67
2022/06/22 01:08:26;;;;;;;6.45;2.38;;;17.50;99.90;;;;;;6167399;28;20302;-67
2022/06/22 01:15:23;;;;;;;5.13;2.60;;;17.50;99.90;;;;;;6166877;28;20298;-67
2022/06/22 01:18:31;;;;;;;5.70;2.63;;;17.50;99.90;;;;;;6166925;28;20303;-67
2022/06/22 01:21:43;;;;;;;11.80;3.47;;;17.50;99.90;;;;;;6167225;29;20489;-67
2022/06/22 01:24:57;;;;;;;3.10;2.70;;;17.40;99.90;;;;;;6166583;28;20307;-67
2022/06/22 01:28:05;;;;;;;10.48;2.85;;;17.40;99.90;;;;;;6166653;28;20306;-67
2022/06/22 01:31:14;;;;;;;4.22;2.65;;;17.50;99.90;;;;;;6167010;29;20294;-67
2022/06/22 01:34:20;;;;;;;5.85;2.70;;;17.40;99.90;;;;;;6166587;28;20299;-67
2022/06/22 01:37:30;;;;;;;6.00;3.25;;;17.40;99.90;;;;;;6166509;28;20310;-67
2022/06/22 01:40:45;;;;;;;3.97;2.35;;;17.50;99.90;;;;;;6166344;29;20294;-67
2022/06/22 01:43:56;;;;;;;5.88;2.58;;;17.40;99.90;;;;;;6166344;28;20460;-67
2022/06/22 01:47:19;;;;;;;2.45;2.25;;;17.40;99.90;;;;;;6166246;29;20294;-67
2022/06/22 01:50:30;;;;;;;6.63;2.58;;;17.40;99.90;;;;;;6165861;28;20327;-67
2022/06/22 01:53:42;;;;;;;7.25;2.83;;;17.40;99.90;;;;;;6165956;28;20294;-68
2022/06/22 01:56:52;;;;;;;3.30;2.35;;;17.40;99.90;;;;;;6166055;29;20581;-67
2022/06/22 02:00:05;;;;;;;11.32;2.88;;;17.40;99.90;;;;;;6165909;28;20298;-68
2022/06/22 02:03:22;;;;;;;6.43;3.00;;;17.40;99.90;;;;;;6165935;28;20303;-67
2022/06/22 02:10:08;;;;;;;3.10;2.38;;;17.30;99.90;;;;;;6185246;28;20302;-67
2022/06/22 02:13:29;;;;;;;2.75;2.50;;;17.40;99.90;;;;;;6165348;28;20308;-68
2022/06/22 02:16:40;;;;;;;2.30;2.20;;;17.40;99.90;;;;;;6165961;28;20276;-67
2022/06/22 02:20:17;;;;;;;2.30;2.20;;;17.50;99.90;;;;;;6165624;29;20334;-67
2022/06/22 02:23:26;;;;;;;4.82;2.40;;;17.30;99.90;;;;;;6163477;28;20303;-67
2022/06/22 02:26:35;;;;;;;2.38;2.28;;;17.40;99.90;;;;;;6166184;28;20274;-67
2022/06/22 02:29:45;;;;;;;2.47;2.25;;;17.40;99.90;;;;;;6165405;28;20597;-67
2022/06/22 02:32:52;;;;;;;3.42;2.75;;;17.40;99.90;;;;;;6165171;28;20308;-67
2022/06/22 02:35:59;;;;;;;2.50;2.30;;;17.30;99.90;;;;;;6165385;29;20274;-67
2022/06/22 02:39:06;;;;;;;3.53;2.53;;;17.40;99.90;;;;;;6164892;29;20302;-67
2022/06/22 02:45:36;;;;;;;2.63;2.45;;;17.30;99.90;;;;;;6165644;28;20274;-68
2022/06/22 02:48:45;;;;;;;2.40;2.30;;;17.30;99.90;;;;;;6164835;28;20318;-67
2022/06/22 02:51:52;;;;;;;2.55;2.45;;;17.30;99.90;;;;;;6165054;29;20283;-67
2022/06/22 02:54:58;;;;;;;2.53;2.50;;;17.30;99.90;;;;;;6164911;28;20298;-67
2022/06/22 02:58:22;;;;;;;2.33;2.30;;;17.20;99.90;;;;;;6164688;29;20319;-67
2022/06/22 03:01:31;;;;;;;2.42;2.42;;;17.20;99.90;;;;;;6164998;28;20274;-67
2022/06/22 03:04:39;;;;;;;2.70;2.50;;;17.30;99.90;;;;;;6177086;28;20309;-67
2022/06/22 03:07:49;;;;;;;3.10;2.92;;;17.30;99.90;;;;;;6169550;28;20290;-67
2022/06/22 03:10:58;;;;;;;3.25;2.58;;;17.30;99.90;;;;;;6174323;28;20270;-67
2022/06/22 03:14:16;;;;;;;2.65;2.45;;;17.40;99.90;;;;;;6188331;28;20336;-68
2022/06/22 03:17:27;;;;;;;2.22;2.20;;;17.40;99.90;;;;;;6170944;28;20273;-68
2022/06/22 03:20:41;;;;;;;2.55;2.42;;;17.40;99.90;;;;;;6170148;28;20272;-68
2022/06/22 03:23:52;;;;;;;2.20;2.05;;;17.40;99.90;;;;;;6163345;28;20310;-68
2022/06/22 03:27:02;;;;;;;3.08;2.88;;;17.40;99.90;;;;;;6164639;28;20274;-68
2022/06/22 03:30:14;;;;;;;2.20;2.20;;;17.30;99.90;;;;;;6164122;28;20275;-68
2022/06/22 03:33:27;;;;;;;4.05;2.65;;;17.40;99.90;;;;;;6164140;29;20306;-68
2022/06/22 03:36:39;;;;;;;4.72;2.60;;;17.40;99.90;;;;;;6174166;28;20268;-68
2022/06/22 03:39:48;;;;;;;3.08;2.40;;;17.40;99.90;;;;;;6187973;28;20302;-68
2022/06/22 03:42:57;;;;;;;6.35;2.38;;;17.50;99.90;;;;;;6170758;28;20482;-68
2022/06/22 03:46:07;;;;;;;2.17;2.17;;;17.30;99.90;;;;;;6188104;28;20460;-68
2022/06/22 03:49:18;;;;;;;4.85;2.65;;;17.30;99.90;;;;;;6187862;28;20305;-68
2022/06/22 03:52:31;;;;;;;3.85;2.70;;;17.30;99.90;;;;;;6187635;28;20287;-67
2022/06/22 03:55:42;;;;;;;3.25;3.00;;;17.20;99.90;;;;;;6188018;28;20278;-67
2022/06/22 03:58:50;;;;;;;3.03;2.83;;;17.20;99.90;;;;;;6187450;28;20297;-67
2022/06/22 04:01:57;;;;;;;2.88;2.67;;;17.20;99.90;;;;;;6187677;28;20464;-67
2022/06/22 04:05:03;;;;;;;3.00;2.70;;;17.30;99.90;;;;;;6187364;28;20411;-68
2022/06/22 04:08:20;;;;;;;2.83;2.70;;;17.30;99.90;;;;;;6187305;28;20302;-67
2022/06/22 04:11:30;;;;;;;3.20;2.97;;;17.30;99.90;;;;;;6171461;28;20270;-68
2022/06/22 04:14:41;;;;;;;2.40;2.40;;;17.40;99.90;;;;;;6163657;29;20475;-67
2022/06/22 04:17:50;;;;;;;8.45;2.80;;;17.40;99.90;;;;;;6163374;28;20290;-68
2022/06/22 04:20:59;;;;;;;2.95;2.63;;;17.40;99.90;;;;;;6164119;28;20275;-68
2022/06/22 04:24:13;;;;;;;3.08;2.88;;;17.40;99.90;;;;;;6163251;29;20306;-67
2022/06/22 04:27:24;;;;;;;2.92;2.72;;;17.40;99.90;;;;;;6163214;28;20322;-67
2022/06/22 04:30:33;;;;;;;3.10;3.00;;;17.40;99.90;;;;;;6163479;29;20275;-67
2022/06/22 04:33:45;;;;;;;3.13;2.47;;;17.40;99.90;;;;;;6163048;28;20302;-68
2022/06/22 04:36:54;;;;;;;3.00;2.80;;;17.30;99.90;;;;;;6167087;29;20458;-67
2022/06/22 04:40:15;;;;;;;2.88;2.60;;;17.30;99.90;;;;;;6167883;29;20485;-67
2022/06/22 04:43:21;;;;;;;2.72;2.50;;;17.30;99.90;;;;;;6167637;29;20302;-67
2022/06/22 04:46:31;;;;;;;2.63;2.53;;;17.30;99.90;;;;;;6168041;29;20274;-67
2022/06/22 04:49:41;;;;;;;2.63;2.53;;;17.30;99.90;;;;;;6167469;29;20302;-67
2022/06/22 04:52:50;;;;;;;3.20;3.00;;;17.30;99.90;;;;;;6167436;28;20303;-67
2022/06/22 04:56:00;;;;;;;36.95;3.60;;;17.40;99.90;;;;;;6167905;29;20274;-68
2022/06/22 04:59:08;;;;;;;2.60;2.40;;;17.40;99.90;;;;;;6167600;28;20298;-67
2022/06/22 05:02:16;;;;;;;4.10;2.70;;;17.50;99.90;;;;;;6166843;29;20274;-67
2022/06/22 05:05:22;;;;;;;2.80;2.70;;;17.40;99.90;;;;;;6167301;28;20310;-67
2022/06/22 05:08:34;;;;;;;2.80;2.70;;;17.40;99.90;;;;;;6167012;28;20609;-67
2022/06/22 05:11:44;;;;;;;3.08;2.80;;;17.40;99.90;;;;;;6167650;28;20271;-67
2022/06/22 05:14:51;;;;;;;2.72;2.72;;;17.50;99.90;;;;;;6166967;28;20309;-67
2022/06/22 05:17:57;;;;;;;3.67;2.63;;;17.40;99.90;;;;;;6166897;28;20298;-67
2022/06/22 05:21:09;;;;;;;2.78;2.67;;;17.40;99.90;;;;;;6167256;29;20275;-66
2022/06/22 05:24:22;;;;;;;5.15;2.95;;;17.50;99.90;;;;;;6166714;28;20302;-67
2022/06/22 05:27:31;;;;;;;3.28;2.97;;;17.50;99.90;;;;;;6166561;28;20310;-67
2022/06/22 05:30:42;;;;;;;3.28;2.97;;;17.60;99.90;;;;;;6167030;29;20274;-66
2022/06/22 05:33:53;;;;;;;2.88;2.72;;;17.60;99.90;;;;;;6166590;28;20302;-67
2022/06/22 05:37:05;;;;;;;2.65;2.55;;;17.60;99.90;;;;;;6166434;28;20290;-67
2022/06/22 05:40:13;;;;;;;3.83;2.70;;;17.70;99.90;;;;;;6165931;29;20282;-67
2022/06/22 05:43:21;;;;;;;4.80;2.53;;;17.70;99.90;;;;;;6166152;28;20298;-67
2022/06/22 05:46:27;;;;;;;4.95;2.92;;;17.60;99.90;;;;;;6166185;28;20279;-67
2022/06/22 05:49:37;;;;;;;9.55;3.40;;;17.70;99.90;;;;;;6166117;28;20302;-67
2022/06/22 05:52:47;;;;;;;5.97;3.05;;;17.70;99.90;;;;;;6165820;28;20456;-67
2022/06/22 05:56:06;;;;;;;4.68;2.60;;;17.80;99.90;;;;;;6166020;29;20278;-67
2022/06/22 05:59:21;;;;;;;4.05;3.00;;;17.80;99.90;;;;;;6165652;28;20298;-67
2022/06/22 06:02:30;;;;;;;5.68;3.60;;;17.90;99.90;;;;;;6165760;28;20306;-67
2022/06/22 06:05:41;;;;;;;8.38;3.20;;;18.00;99.90;;;;;;6176755;28;20314;-67
2022/06/22 06:08:49;;;;;;;5.82;3.20;;;18.00;99.90;;;;;;6189724;28;20589;-67
2022/06/22 06:12:01;;;;;;;4.22;3.10;;;18.00;99.90;;;;;;6170151;28;20545;-67
2022/06/22 06:15:11;;;;;;;3.45;3.10;;;18.00;99.90;;;;;;6164273;29;20408;-67
2022/06/22 06:18:27;;;;;;;3.92;2.90;;;18.00;99.90;;;;;;6165018;28;20298;-67
2022/06/22 06:21:37;;;;;;;4.30;3.03;;;18.10;99.90;;;;;;6165908;29;20456;-67
2022/06/22 06:28:12;;;;;;;4.35;2.70;;;18.10;99.90;;;;;;6164684;28;20589;-67
2022/06/22 06:31:24;;;;;;;6.57;3.28;;;18.20;99.90;;;;;;6165380;29;20557;-68
2022/06/22 06:34:36;;;;;;;13.20;3.38;;;18.30;99.90;;;;;;6164688;29;20307;-67
2022/06/22 06:37:51;;;;;;;6.50;2.35;;;18.40;99.90;;;;;;6164631;29;20437;-67
2022/06/22 06:41:03;;;;;;;4.03;2.55;;;18.40;99.90;;;;;;6164839;29;20578;-67
2022/06/22 06:44:13;;;;;;;2.65;2.45;;;18.40;99.90;;;;;;6164770;28;20298;-67
2022/06/22 06:47:26;;;;;;;2.53;2.33;;;18.40;99.90;;;;;;6164792;28;20294;-67
2022/06/22 06:50:37;;;;;;;3.00;2.70;;;18.40;99.90;;;;;;6165247;29;20577;-68
2022/06/22 06:53:46;;;;;;;2.45;2.25;;;18.50;99.90;;;;;;6164205;29;20491;-67
2022/06/22 06:56:57;;;;;;;6.68;2.30;;;18.60;99.90;;;;;;6164796;28;20283;-67
2022/06/22 07:00:06;;;;;;;2.60;2.40;;;18.80;99.90;;;;;;6164120;29;20589;-67
2022/06/22 07:03:22;;;;;;;5.55;2.80;;;18.90;99.90;;;;;;6164620;28;20294;-67
2022/06/22 07:06:28;;;;;;;2.80;2.60;;;18.90;99.90;;;;;;6164257;29;20306;-67
2022/06/22 07:09:35;;;;;;;5.85;2.65;;;19.00;99.90;;;;;;6164446;28;20298;-67
2022/06/22 07:12:45;;;;;;;5.35;2.90;;;19.20;99.90;;;;;;6163423;28;20299;-67
2022/06/22 07:15:59;;;;;;;2.58;2.40;;;19.40;99.90;;;;;;6164373;29;20283;-67
2022/06/22 07:19:08;;;;;;;2.65;2.42;;;19.20;99.90;;;;;;6164041;28;20601;-67
2022/06/22 07:22:21;;;;;;;5.25;2.83;;;19.00;99.90;;;;;;6162492;28;20274;-67
2022/06/22 07:25:34;;;;;;;2.97;2.63;;;18.90;99.90;;;;;;6164140;29;20320;-68
2022/06/22 07:28:42;;;;;;;4.35;2.70;;;19.00;99.90;;;;;;6163816;28;20306;-68
2022/06/22 07:31:55;;;;;;;2.40;2.40;;;19.10;99.90;;;;;;6163822;29;20279;-67
2022/06/22 07:35:05;;;;;;;2.90;2.70;;;19.20;99.90;;;;;;6163940;28;20483;-67
2022/06/22 07:38:27;;;;;;;3.03;2.42;;;19.40;99.90;;;;;;6163735;28;20298;-68
2022/06/22 07:41:32;;;;;;;3.08;2.85;;;19.40;99.90;;;;;;6164061;29;20278;-68
2022/06/22 07:44:38;;;;;;;3.38;3.10;;;19.40;99.90;;;;;;6163617;28;20478;-68
2022/06/22 07:47:54;;;;;;;3.42;2.78;;;19.20;99.90;;;;;;6163265;28;20310;-67
2022/06/22 07:51:05;;;;;;;3.92;3.08;;;19.20;99.90;;;;;;6163863;29;20275;-68
2022/06/22 07:54:15;;;;;;;3.45;3.03;;;19.20;99.90;;;;;;6163354;28;20298;-68
2022/06/22 07:57:27;;;;;;;2.97;2.80;;;19.20;99.90;;;;;;6163091;28;20278;-68
2022/06/22 08:00:33;;;;;;;2.70;2.60;;;19.10;99.90;;;;;;6164108;29;20275;-68
2022/06/22 08:03:43;;;;;;;3.95;3.50;;;19.10;99.90;;;;;;6163307;28;20298;-68
2022/06/22 08:06:56;;;;;;;3.15;2.90;;;19.20;99.90;;;;;;6184101;28;20305;-68
2022/06/22 08:10:07;;;;;;;3.20;3.00;;;19.20;99.90;;;;;;6184738;28;20294;-68
2022/06/22 08:13:17;;;;;;;3.45;3.20;;;19.20;99.90;;;;;;6168583;28;20298;-67
2022/06/22 08:16:29;;;;;;;5.22;2.80;;;19.30;99.90;;;;;;6169000;28;20278;-68
2022/06/22 08:19:34;;;;;;;3.45;3.15;;;19.40;99.90;;;;;;6168278;28;20597;-67
2022/06/22 08:22:43;;;;;;;3.22;3.05;;;19.40;99.90;;;;;;6168149;28;20293;-68
2022/06/22 08:25:51;;;;;;;6.88;2.80;;;19.30;99.90;;;;;;6168221;28;20318;-67
2022/06/22 08:28:57;;;;;;;4.45;2.70;;;19.50;99.90;;;;;;6168113;28;20294;-69
2022/06/22 08:32:08;;;;;;;3.40;3.10;;;19.60;99.90;;;;;;6168351;29;20271;-68
2022/06/22 08:35:37;;;;;;;3.63;3.42;;;19.60;99.90;;;;;;6167898;28;20278;-68
2022/06/22 08:38:49;;;;;;;3.90;3.80;;;19.60;99.90;;;;;;6168114;28;20299;-68
2022/06/22 08:42:11;;;;;;;4.63;4.32;;;19.60;99.90;;;;;;6168432;28;20546;-68
2022/06/22 08:45:41;;;;;;;3.13;3.03;;;19.60;99.90;;;;;;6167227;29;20279;-68
2022/06/22 08:49:08;;;;;;;3.40;3.20;;;19.70;99.90;;;;;;6167386;29;20485;-68
2022/06/22 08:52:30;;;;;;;3.33;3.10;;;19.70;99.90;;;;;;6167305;29;20271;-68
2022/06/22 08:56:13;;;;;;;6.72;3.38;;;19.70;99.90;;;;;;6167847;29;20461;-68
2022/06/22 08:59:46;;;;;;;3.65;2.95;;;19.70;99.90;;;;;;6167302;29;20298;-67
2022/06/22 09:03:33;;;;;;;2.92;2.70;;;19.90;99.90;;;;;;6167503;28;20330;-67
2022/06/22 09:07:09;;;;;;;3.00;2.80;;;19.90;99.90;;;;;;6165353;29;20310;-67
2022/06/22 09:10:53;;;;;;;10.43;6.38;;;19.90;99.90;;;;;;6166840;29;20282;-68
2022/06/22 09:14:35;;;;;;;3.88;3.45;;;20.00;99.90;;;;;;6166995;28;20303;-68
2022/06/22 09:18:13;;;;;;;8.32;3.45;;;20.00;99.90;;;;;;6166968;28;20298;-68
2022/06/22 09:21:32;;;;;;;6.65;3.42;;;20.00;99.90;;;;;;6165974;28;20275;-68
2022/06/22 09:24:42;;;;;;;8.05;3.70;;;20.00;99.90;;;;;;6166750;28;20298;-68
2022/06/22 09:27:52;;;;;;;3.15;2.80;;;20.10;99.90;;;;;;6166400;28;20306;-68
2022/06/22 09:31:51;;;;;;;9.90;2.78;;;20.10;99.90;;;;;;6166959;29;20275;-68
2022/06/22 09:35:13;;;;;;;6.10;3.00;;;20.20;99.90;;;;;;6163600;28;20298;-67
2022/06/22 09:38:42;;;;;;;3.63;3.08;;;20.20;99.90;;;;;;6166109;28;20593;-67
2022/06/22 09:42:04;;;;;;;4.80;2.85;;;20.30;99.90;;;;;;6166533;29;20278;-67
2022/06/22 09:45:28;;;;;;;3.10;2.58;;;20.40;99.90;;;;;;6166139;28;20278;-67
2022/06/22 09:49:08;;;;;;;5.32;2.85;;;20.50;99.90;;;;;;6165796;28;20302;-67
2022/06/22 09:52:58;;;;;;;3.35;3.05;;;20.70;99.90;;;;;;6161824;28;20294;-69
2022/06/22 09:56:38;;;;;;;6.80;3.00;;;20.70;99.90;;;;;;6120877;28;20279;-69
2022/06/22 10:00:06;;;;;;;7.57;3.05;;;20.80;99.90;;;;;;6165681;28;20298;-67
2022/06/22 10:03:35;;;;;;;5.07;3.03;;;20.90;99.90;;;;;;6165391;28;20453;-69
2022/06/22 10:06:59;;;;;;;5.72;4.18;;;21.00;99.90;;;;;;6185762;28;20303;-67
2022/06/22 10:10:15;;;;;;;8.80;3.40;;;21.00;99.90;;;;;;6184341;28;20303;-68
2022/06/22 10:14:05;;;;;;;11.68;3.20;;;21.00;99.90;;;;;;6165762;28;20298;-67
2022/06/22 10:17:27;;;;;;;3.97;2.50;;;21.00;99.90;;;;;;6141841;28;20283;-68
2022/06/22 10:21:04;;;;;;;7.47;2.40;;;21.00;99.90;;;;;;6165623;28;20359;-66
2022/06/22 10:24:31;;;;;;;20.15;3.35;;;21.00;99.00;;;;;;6165318;28;20302;-69
2022/06/22 10:27:54;;;;;;;6.25;2.67;;;21.10;99.00;;;;;;6164793;28;20298;-67
2022/06/22 10:31:08;;;;;;;6.18;5.13;;;21.10;98.90;;;;;;6165656;28;20287;-68
2022/06/22 10:34:38;;;;;;;3.75;2.83;;;21.10;99.30;;;;;;6165045;28;20298;-68
2022/06/22 10:38:11;;;;;;;2.22;2.13;;;21.10;98.60;;;;;;6165018;28;20298;-69
2022/06/22 10:45:20;;;;;;;5.45;2.47;;;21.20;98.10;;;;;;6164800;28;20298;-69
2022/06/22 10:49:05;;;;;;;2.85;2.53;;;21.20;99.00;;;;;;6164692;29;20306;-67
2022/06/22 10:52:31;;;;;;;4.65;2.20;;;21.30;98.60;;;;;;6164176;29;20291;-68
2022/06/22 10:55:53;;;;;;;4.15;2.30;;;21.40;99.10;;;;;;6164399;29;20565;-67
2022/06/22 10:59:21;;;;;;;8.25;2.50;;;21.50;98.60;;;;;;6164008;29;20609;-67
2022/06/22 11:03:26;;;;;;;4.10;2.20;;;21.60;97.50;;;;;;6164459;29;20290;-67
2022/06/22 11:07:43;;;;;;;2.25;2.08;;;21.70;98.20;;;;;;6164282;29;20553;-67
2022/06/22 11:10:59;;;;;;;1.92;1.83;;;21.80;97.40;;;;;;6090741;28;20288;-68
2022/06/22 11:14:43;;;;;;;5.93;4.38;;;21.80;97.80;;;;;;6163564;28;20294;-68
2022/06/22 11:18:12;;;;;;;3.53;2.97;;;21.80;97.90;;;;;;6163935;28;20306;-68
2022/06/22 11:21:35;;;;;;;2.45;2.25;;;21.80;98.60;;;;;;6164482;28;20276;-68
2022/06/22 11:25:16;;;;;;;2.40;2.22;;;21.80;97.30;;;;;;6163757;28;20314;-68
2022/06/22 11:32:51;;;;;;;7.35;3.00;;;21.90;97.60;;;;;;6163891;28;20318;-68
2022/06/22 11:36:08;;;;;;;7.32;4.38;;;21.80;97.90;;;;;;6164190;29;20275;-68
2022/06/22 11:39:31;;;;;;;5.63;2.90;;;21.80;98.00;;;;;;6163697;28;20486;-68
2022/06/22 11:42:48;;;;;;;4.97;2.88;;;21.70;98.10;;;;;;6163645;28;20294;-68
2022/06/22 11:46:00;;;;;;;3.92;1.95;;;21.80;98.80;;;;;;6163776;28;20270;-68
2022/06/22 11:49:32;;;;;;;2.90;2.00;;;21.70;97.30;;;;;;6163388;28;20440;-68
2022/06/22 11:53:08;;;;;;;4.32;2.47;;;21.80;97.40;;;;;;6163074;28;20302;-68
2022/06/22 11:56:22;;;;;;;3.33;2.15;;;21.70;97.60;;;;;;6164079;29;20340;-68
2022/06/22 11:59:54;;;;;;;3.72;2.40;;;21.80;98.40;;;;;;6163388;28;20621;-67
2022/06/22 12:03:41;;;;;;;9.15;2.53;;;21.80;97.70;;;;;;6163088;28;20294;-67
2022/06/22 12:07:44;;;;;;;4.88;1.90;;;21.80;97.70;;;;;;6183598;28;20321;-68
2022/06/22 12:10:51;;;;;;;9.32;3.08;;;21.90;96.80;;;;;;6125116;29;20310;-68
2022/06/22 12:18:23;;;;;;;3.05;1.98;;;21.90;96.00;;;;;;6140364;29;20306;-67
2022/06/22 12:22:04;;;;;;;4.45;1.88;;;21.90;96.50;;;;;;6163379;29;20279;-68
2022/06/22 12:25:44;;;;;;;3.80;1.90;;;22.00;96.50;;;;;;6163219;29;20302;-68
2022/06/22 12:29:10;;;;;;;3.53;1.98;;;22.00;96.60;;;;;;6141991;29;20306;-68
2022/06/22 12:32:20;;;;;;;3.28;2.10;;;22.00;95.80;;;;;;6162904;28;20270;-68
2022/06/22 12:35:37;;;;;;;2.58;1.92;;;22.00;96.30;;;;;;6163124;29;20290;-67
2022/06/22 12:38:46;;;;;;;3.28;2.28;;;22.10;96.00;;;;;;6163007;29;20306;-68
2022/06/22 12:43:01;;;;;;;3.25;1.80;;;22.10;95.90;;;;;;6163365;28;20271;-68
2022/06/22 12:46:14;;;;;;;6.47;1.85;;;21.90;96.20;;;;;;6139788;29;20273;-67
2022/06/22 12:49:51;;;;;;;2.42;1.92;;;21.80;96.50;;;;;;6163088;28;20298;-67
2022/06/22 12:53:02;;;;;;;5.45;1.75;;;21.70;96.40;;;;;;6163069;29;20299;-68
2022/06/22 12:56:16;;;;;;;3.63;2.22;;;21.60;97.30;;;;;;6164024;28;20279;-67
2022/06/22 12:59:29;;;;;;;2.10;2.00;;;21.60;97.30;;;;;;6167350;28;20323;-68
2022/06/22 13:02:39;;;;;;;2.05;1.88;;;21.70;97.50;;;;;;6166627;29;20290;-68
2022/06/22 13:05:44;;;;;;;5.20;1.92;;;21.80;97.10;;;;;;6167811;28;20332;-67
2022/06/22 13:08:52;;;;;;;3.90;2.03;;;21.90;97.50;;;;;;6166963;28;20334;-68
2022/06/22 13:12:00;;;;;;;2.25;1.77;;;22.00;98.30;;;;;;6167152;29;20453;-68
2022/06/22 13:15:11;;;;;;;2.65;2.08;;;22.00;98.10;;;;;;6166799;28;20298;-67
2022/06/22 13:18:25;;;;;;;3.58;2.03;;;22.10;97.20;;;;;;6166785;28;20306;-68
2022/06/22 13:21:42;;;;;;;3.33;2.20;;;22.10;96.80;;;;;;6166799;28;20275;-67
2022/06/22 13:24:54;;;;;;;2.05;1.85;;;22.10;97.60;;;;;;6166591;28;20433;-67
2022/06/22 13:28:08;;;;;;;2.08;1.98;;;22.20;96.30;;;;;;6166294;28;20303;-67
2022/06/22 13:31:17;;;;;;;2.70;2.10;;;22.20;96.80;;;;;;6166526;29;20294;-68
2022/06/22 13:34:26;;;;;;;2.58;1.80;;;22.30;97.10;;;;;;6166170;28;20303;-68
2022/06/22 13:37:38;;;;;;;6.82;2.00;;;22.30;96.10;;;;;;6165987;28;20299;-67
2022/06/22 13:40:55;;;;;;;4.20;2.00;;;22.40;95.90;;;;;;6166684;29;20456;-67
2022/06/22 13:44:29;;;;;;;2.28;2.10;;;22.40;96.60;;;;;;6165978;28;20299;-68
2022/06/22 13:48:17;;;;;;;3.90;2.10;;;22.50;97.60;;;;;;6165699;28;20597;-67
2022/06/22 13:51:41;;;;;;;5.70;2.38;;;22.50;97.10;;;;;;6165862;29;20294;-67
2022/06/22 13:55:15;;;;;;;11.65;3.00;;;22.50;97.60;;;;;;6165736;28;20585;-67
2022/06/22 13:58:25;;;;;;;3.80;2.50;;;22.60;97.80;;;;;;6165892;28;20306;-68
2022/06/22 14:01:37;;;;;;;3.42;2.35;;;22.50;97.20;;;;;;6165016;29;20282;-67
2022/06/22 14:04:47;;;;;;;4.15;2.58;;;22.50;97.70;;;;;;6167027;28;20294;-67
2022/06/22 14:07:59;;;;;;;4.55;1.83;;;22.40;96.30;;;;;;6189012;28;20592;-67
2022/06/22 14:11:08;;;;;;;2.53;2.20;;;22.40;96.20;;;;;;6176324;28;20287;-67
2022/06/22 14:14:23;;;;;;;3.08;2.90;;;22.40;96.80;;;;;;6165179;29;20303;-67
2022/06/22 14:17:32;;;;;;;4.43;2.00;;;22.20;95.90;;;;;;6165752;28;20409;-67
2022/06/22 14:20:43;;;;;;;3.00;2.38;;;22.30;96.20;;;;;;6165834;29;20416;-67
2022/06/22 14:23:49;;;;;;;2.35;2.10;;;22.40;96.30;;;;;;6164994;28;20322;-67
2022/06/22 14:27:20;;;;;;;3.67;1.85;;;22.40;96.20;;;;;;6165878;28;20275;-67
2022/06/22 14:30:40;;;;;;;2.63;2.42;;;22.50;96.60;;;;;;6164380;29;20297;-68
2022/06/22 14:33:55;;;;;;;1.40;1.30;;;22.60;96.10;;;;;;6165255;28;20294;-67
2022/06/22 14:37:25;;;;;;;4.18;2.00;;;22.70;95.60;;;;;;6164445;28;20581;-67
2022/06/22 14:40:37;;;;;;;2.97;1.70;;;22.70;95.10;;;;;;6165383;29;20274;-68
2022/06/22 14:43:51;;;;;;;2.30;2.10;;;22.70;94.60;;;;;;6164498;29;20295;-67
2022/06/22 14:47:24;;;;;;;4.88;1.83;;;22.60;95.10;;;;;;6164767;29;20270;-68
2022/06/22 14:50:34;;;;;;;4.18;2.20;;;22.60;96.30;;;;;;6164015;28;20298;-67
2022/06/22 14:53:50;;;;;;;4.47;1.80;;;22.40;95.50;;;;;;6164400;28;20298;-67
2022/06/22 14:57:02;;;;;;;3.45;1.92;;;22.40;96.20;;;;;;6164718;29;20271;-68
2022/06/22 15:00:22;;;;;;;7.57;2.50;;;22.70;95.90;;;;;;6163986;29;20299;-67
2022/06/22 15:03:43;;;;;;;2.40;2.15;;;22.70;97.30;;;;;;6164008;29;20298;-68
2022/06/22 15:07:14;;;;;;;3.20;2.00;;;22.80;96.50;;;;;;6163900;29;20606;-67
2022/06/22 15:10:28;;;;;;;4.30;2.28;;;22.80;95.90;;;;;;6163733;29;20282;-68
2022/06/22 15:13:46;;;;;;;10.77;2.60;;;22.80;95.80;;;;;;6164112;28;20373;-68
2022/06/22 15:16:57;;;;;;;4.60;2.30;;;22.80;96.00;;;;;;6164301;29;20275;-67
2022/06/22 15:20:13;;;;;;;4.97;2.33;;;22.70;96.50;;;;;;6163168;28;20298;-67
2022/06/22 15:23:23;;;;;;;3.92;2.47;;;22.60;97.10;;;;;;6163411;28;20310;-67
2022/06/22 15:26:36;;;;;;;5.35;2.45;;;22.60;96.60;;;;;;6163702;29;20286;-68
2022/06/22 15:29:48;;;;;;;3.67;2.80;;;22.60;97.10;;;;;;6163363;28;20302;-68
2022/06/22 15:33:03;;;;;;;5.93;3.05;;;22.70;97.00;;;;;;6163276;28;20322;-68
2022/06/22 15:36:13;;;;;;;5.57;2.38;;;23.10;96.30;;;;;;6163959;29;20478;-68
2022/06/22 15:39:25;;;;;;;6.43;2.85;;;23.50;95.80;;;;;;6163810;28;20242;-67
2022/06/22 15:42:41;;;;;;;8.43;2.75;;;23.10;95.50;;;;;;6163537;28;20294;-68
2022/06/22 15:45:54;;;;;;;4.70;3.00;;;23.10;96.90;;;;;;6163818;29;20270;-69
2022/06/22 15:49:10;;;;;;;7.65;2.70;;;23.00;96.50;;;;;;6163435;28;20306;-67
2022/06/22 15:52:22;;;;;;;4.32;2.92;;;23.00;97.20;;;;;;6163084;28;20295;-67
2022/06/22 15:55:33;;;;;;;2.60;2.50;;;23.10;96.70;;;;;;6163710;29;20274;-69
2022/06/22 15:58:46;;;;;;;7.45;3.13;;;23.20;96.40;;;;;;6163070;28;20379;-67
2022/06/22 16:01:57;;;;;;;7.35;3.17;;;23.20;97.10;;;;;;6163660;29;20275;-68
2022/06/22 16:05:09;;;;;;;8.00;2.95;;;23.30;97.20;;;;;;6167087;28;20317;-68
2022/06/22 16:08:27;;;;;;;7.75;3.47;;;23.30;97.00;;;;;;6187183;28;20381;-69
2022/06/22 16:15:12;;;;;;;7.57;3.55;;;23.20;97.20;;;;;;6162783;29;20321;-68
2022/06/22 16:18:25;;;;;;;4.40;2.40;;;23.30;97.60;;;;;;6163215;28;20313;-68
2022/06/22 16:21:34;;;;;;;4.07;3.13;;;23.40;96.60;;;;;;6163232;29;20346;-67
2022/06/22 16:24:43;;;;;;;6.25;2.95;;;23.50;96.50;;;;;;6162661;29;20491;-68
2022/06/22 16:27:54;;;;;;;8.50;3.17;;;23.50;96.00;;;;;;6162891;28;20298;-68
2022/06/22 16:31:12;;;;;;;5.82;3.35;;;23.50;96.30;;;;;;6165939;28;20470;-68
2022/06/22 16:34:26;;;;;;;4.30;3.45;;;23.50;96.30;;;;;;6167724;28;20295;-68
2022/06/22 16:37:42;;;;;;;5.90;3.60;;;23.20;96.40;;;;;;6167322;28;20314;-67
2022/06/22 16:40:53;;;;;;;6.65;3.80;;;23.10;96.60;;;;;;6167824;29;20295;-67
2022/06/22 16:44:26;;;;;;;10.68;4.63;;;23.00;97.30;;;;;;6167575;28;20298;-68
2022/06/22 16:47:46;;;;;;;11.07;5.40;;;23.00;96.90;;;;;;6166974;29;20573;-68
2022/06/22 16:51:01;;;;;;;12.10;4.50;;;23.10;96.90;;;;;;6167758;28;20275;-68
2022/06/22 16:54:09;;;;;;;15.20;4.50;;;23.00;96.80;;;;;;6166887;29;20307;-68
2022/06/22 16:57:19;;;;;;;8.07;3.83;;;23.00;97.20;;;;;;6166752;29;20279;-67
2022/06/22 17:00:27;;;;;;;4.55;3.08;;;23.10;97.20;;;;;;6167337;29;20553;-68
2022/06/22 17:03:44;;;;;;;10.73;3.20;;;23.00;96.70;;;;;;6167042;28;20298;-67
2022/06/22 17:07:09;;;;;;;7.72;3.08;;;22.90;96.60;;;;;;6167012;29;20302;-67
2022/06/22 17:10:32;;;;;;;7.10;3.63;;;22.90;96.80;;;;;;6166596;29;20282;-67
2022/06/22 17:13:44;;;;;;;6.63;3.50;;;22.90;96.70;;;;;;6166670;28;20459;-67
2022/06/22 17:17:08;;;;;;;6.25;3.60;;;22.80;96.70;;;;;;6167152;29;20549;-67
2022/06/22 17:20:19;;;;;;;11.45;4.40;;;22.70;97.40;;;;;;6166288;28;20274;-67
2022/06/22 17:23:32;;;;;;;9.32;3.95;;;22.60;97.70;;;;;;6166657;28;20583;-67
2022/06/22 17:26:43;;;;;;;8.57;4.40;;;22.40;97.70;;;;;;6166645;29;20275;-68
2022/06/22 17:29:57;;;;;;;8.93;4.43;;;22.20;98.30;;;;;;6166433;28;20297;-67